• Join FlightAware (Why Join?)
  • Login
  • US Flag 
01:19PM EST


 

Airport Tracker/Info


-or-


 

Live Flight TrackerFlight Track Log ✈ UAL119 ✈ 13-Apr-2013 ✈ KEWR - EDDF / FRA

Flight Track Log - Related Links

Times and Time Zones

All times are in EDT time to prevent confusion due to time zone crossing. See the UAL119 flight status page for this flight to view local times or setup timezone preferences in your user account.

Time Position Orientation Groundspeed Altitude Reporting Facility
EDT Latitude Longitude Course Direction KTS MPH feet Rate Location/Type
05:06PM 40.6600 -74.1910 360° North 179 206 1,500  Level FlightAware
05:06PM 40.6439 -74.1905 179° South 197 227 2,000 1,560 Climbing FlightAware ADS-B
05:07PM 40.6391 -74.1900 175° South 201 231 2,100 1,320 Climbing FlightAware ADS-B
05:07PM 40.6233 -74.1932 189° South 213 245 2,500 1,380 Climbing FlightAware ADS-B
05:07PM 40.6189 -74.1958 204° Southwest 216 249 2,600 1,500 Climbing FlightAware ADS-B
05:07PM 40.6163 -74.1977 209° Southwest 218 251 2,700 1,980 Climbing FlightAware ADS-B
05:07PM 40.6135 -74.2001 213° Southwest 220 253 2,800 2,520 Climbing FlightAware ADS-B
05:07PM 40.6106 -74.2035 222° Southwest 221 254 3,000 2,160 Climbing FlightAware ADS-B
05:07PM 40.6063 -74.2109 233° Southwest 222 255 3,200 2,460 Climbing FlightAware ADS-B
05:07PM 40.6041 -74.2173 246° West 222 255 3,500 2,880 Climbing FlightAware ADS-B
05:08PM 40.6100 -74.2545 282° West 222 255 4,900 2,820 Climbing FlightAware ADS-B
05:08PM 40.6129 -74.2582 316° Northwest 227 261 5,100 2,520 Climbing FlightAware ADS-B
05:08PM 40.6156 -74.2609 323° Northwest 230 265 5,200 1,980 Climbing FlightAware ADS-B
05:08PM 40.6216 -74.2650 333° Northwest 237 273 5,400 1,620 Climbing FlightAware ADS-B
05:08PM 40.6267 -74.2671 343° North 247 284 5,500 960 Climbing FlightAware ADS-B
05:08PM 40.6273 -74.2672 353° North 248 285 5,500  Level FlightAware ADS-B
05:08PM 40.6314 -74.2681 351° North 258 297 5,500  Level FlightAware ADS-B
05:08PM 40.6331 -74.2682 357° North 258 297 5,500 1,200 Level FlightAware ADS-B
05:08PM 40.6367 -74.2683 359° North 264 304 5,600 1,680 Climbing FlightAware ADS-B
05:08PM 40.6422 -74.2676 North 272 313 5,700 1,680 Climbing FlightAware ADS-B
05:08PM 40.6455 -74.2667 12° North 275 316 5,800 2,220 Climbing FlightAware ADS-B
05:08PM 40.6522 -74.2634 20° North 279 321 6,000 2,700 Climbing FlightAware ADS-B
05:09PM 40.6589 -74.2587 28° Northeast 281 323 6,300 2,820 Climbing FlightAware ADS-B
05:09PM 40.6693 -74.2456 44° Northeast 286 329 6,800 2,520 Climbing FlightAware ADS-B
05:09PM 40.6759 -74.2344 52° Northeast 290 334 7,100 2,400 Climbing FlightAware ADS-B
05:09PM 40.6882 -74.2088 58° Northeast 297 342 7,800 2,400 Climbing FlightAware ADS-B
05:09PM 40.6917 -74.2010 59° Northeast 302 348 8,000 1,860 Climbing FlightAware ADS-B
05:09PM 40.6989 -74.1831 62° Northeast 314 361 8,300 1,740 Climbing FlightAware ADS-B
05:10PM 40.7097 -74.1546 63° Northeast 326 375 8,800 1,860 Climbing FlightAware ADS-B
05:10PM 40.7133 -74.1452 63° Northeast 288 331 9,000 2,580 Climbing FlightAware ADS-B
05:10PM 40.7208 -74.1266 62° Northeast 327 376 9,500 2,280 Climbing FlightAware ADS-B
05:10PM 40.7267 -74.1122 62° Northeast 325 374 9,700 1,320 Climbing FlightAware ADS-B
05:10PM 40.7368 -74.0878 61° Northeast 343 395 10,000 960 Climbing FlightAware ADS-B
05:10PM 40.7402 -74.0792 62° Northeast 343 395 10,000 180 Level FlightAware ADS-B
05:11PM 40.7632 -74.0245 61° Northeast 375 432 10,100 180 Climbing FlightAware ADS-B
05:11PM 40.7655 -74.0192 60° Northeast 376 433 10,100  Level FlightAware ADS-B
05:11PM 40.7893 -73.9623 61° Northeast 378 435 10,100  Level FlightAware ADS-B
05:12PM 40.8099 -73.9135 61° Northeast 377 434 10,100  Level FlightAware ADS-B
05:12PM 40.8223 -73.8839 61° Northeast 373 429 10,100  Level FlightAware ADS-B
05:13PM 40.8450 -73.8300 61° Northeast 372 428 10,100  Level FlightAware
05:13PM 40.8552 -73.8113 54° Northeast 372 428 10,100  Level FlightAware ADS-B
05:13PM 40.8734 -73.7825 50° Northeast 369 425 10,100 720 Level FlightAware ADS-B
05:14PM 40.9514 -73.6855 43° Northeast 366 421 11,100 1,260 Climbing FlightAware ADS-B
05:15PM 40.9970 -73.6280 44° Northeast 406 467 12,300 1,800 Climbing FlightAware
05:15PM 41.0530 -73.5520 46° Northeast 430 495 13,500 1,980 Climbing FlightAware
05:16PM 41.1060 -73.4670 50° Northeast 442 509 15,000 2,100 Climbing FlightAware
05:17PM 41.1730 -73.3560 51° Northeast 460 529 16,700 1,980 Climbing FlightAware
05:17PM 41.2250 -73.2680 52° Northeast 469 540 18,000 1,680 Climbing FlightAware
05:18PM 41.2800 -73.1750 52° Northeast 485 558 19,000 660 Climbing FlightAware
05:19PM 41.3450 -73.0660 52° Northeast 482 555 19,000 660 Level FlightAware
05:20PM 41.3970 -72.9790 51° Northeast 490 564 20,000 1,560 Climbing FlightAware
05:20PM 41.4550 -72.8810 52° Northeast 502 578 21,100 960 Climbing FlightAware
05:21PM 41.5090 -72.7910 51° Northeast 504 580 21,300 1,200 Climbing FlightAware
05:22PM 41.5910 -72.6490 52° Northeast 515 593 23,000 1,500 Climbing FlightAware
05:23PM 41.5280 -72.7580 232° Southwest 24,300 1,320 Climbing FlightAware
05:23PM 41.6900 -72.4600 54° Northeast 24,800 1,200 Climbing FlightAware
05:24PM 41.7400 -72.3200 64° Northeast 550 633 25,700 1,380 Climbing FlightAware
05:24PM 41.7790 -72.1870 68° East 555 639 26,800 1,500 Climbing FlightAware
05:25PM 41.8130 -72.0770 67° East 560 644 27,600 1,200 Climbing FlightAware
05:26PM 41.8670 -71.9030 67° East 569 655 28,500 1,200 Climbing FlightAware
05:27PM 41.9050 -71.7830 67° East 569 655 29,400 1,260 Climbing FlightAware
05:27PM 41.9450 -71.6460 69° East 570 656 30,300 1,080 Climbing FlightAware
05:28PM 41.9880 -71.4950 69° East 573 659 31,000 480 Climbing FlightAware
05:29PM 42.0250 -71.3660 69° East 575 662 31,000 60 Level FlightAware
05:29PM 42.0640 -71.2290 69° East 570 656 31,100 600 Climbing FlightAware
05:30PM 42.1050 -71.0840 69° East 565 650 31,900 1,200 Climbing FlightAware
05:31PM 42.1360 -70.9750 69° East 562 647 32,800 840 Climbing FlightAware
05:31PM 42.1750 -70.8350 69° East 566 651 33,000 120 Climbing FlightAware
05:32PM 42.2240 -70.6600 69° East 566 651 33,000  Level FlightAware
05:33PM 42.2660 -70.5100 69° East 570 656 33,000  Level FlightAware
05:34PM 42.3020 -70.3790 70° East 572 658 33,000  Level FlightAware
05:34PM 42.3390 -70.2430 70° East 577 664 33,000  Level FlightAware
05:35PM 42.3800 -70.0880 70° East 576 663 33,000  Level FlightAware
05:36PM 42.4210 -69.9390 70° East 575 662 33,000  Level FlightAware
05:36PM 42.4570 -69.8020 70° East 573 659 33,000  Level FlightAware
05:37PM 42.4890 -69.6810 70° East 572 658 33,000  Level FlightAware
05:38PM 42.5230 -69.5520 70° East 570 656 33,000  Level FlightAware
05:38PM 42.5650 -69.3940 70° East 565 650 33,000  Level FlightAware
05:39PM 42.6060 -69.2360 71° East 564 649 33,000  Level FlightAware
05:40PM 42.6350 -69.1220 71° East 561 646 33,000  Level FlightAware
05:41PM 42.6760 -68.9650 70° East 559 643 33,000  Level FlightAware
05:41PM 42.7020 -68.8620 71° East 559 643 33,000  Level FlightAware
05:42PM 42.7420 -68.7050 71° East 561 646 33,000  Level FlightAware
05:43PM 42.7850 -68.5350 71° East 558 642 33,000  Level FlightAware
05:43PM 42.8120 -68.4260 71° East 558 642 33,000  Level FlightAware
05:44PM 42.8450 -68.2920 71° East 558 642 33,000  Level FlightAware
05:45PM 42.8760 -68.1650 72° East 556 640 33,000  Level FlightAware
05:45PM 42.9210 -67.9820 71° East 557 641 33,000  Level FlightAware
05:46PM 42.9520 -67.8570 71° East 558 642 33,000  Level FlightAware
05:47PM 42.9970 -67.6740 71° East 558 642 33,000  Level FlightAware
05:48PM 43.0330 -67.5200 72° East 555 639 33,000  Level FlightAware
05:48PM 43.0590 -67.4080 72° East 554 638 33,000  Level FlightAware
05:49PM 43.0950 -67.2600 72° East 554 638 33,000  Level FlightAware
05:50PM 43.1330 -67.0970 72° East 553 636 33,000  Level FlightAware
05:51PM 43.1870 -66.8930 70° East 552 635 33,000  Level FlightAware
05:52PM 43.2320 -66.7560 66° East 551 634 33,000  Level FlightAware
05:52PM 43.2800 -66.6040 67° East 553 636 33,000  Level FlightAware
05:53PM 43.3360 -66.4260 67° East 554 638 33,000  Level FlightAware
05:54PM 43.3790 -66.2890 67° East 555 639 33,000  Level FlightAware
05:55PM 43.4250 -66.1420 67° East 555 639 33,000  Level FlightAware
05:56PM 43.4810 -65.9620 67° East 556 640 33,000  Level FlightAware
05:56PM 43.5210 -65.8310 67° East 555 639 33,000  Level FlightAware
05:57PM 43.5660 -65.6840 67° East 555 639 33,000  Level FlightAware
05:58PM 43.6360 -65.4530 67° East 557 641 33,000  Level FlightAware
05:59PM 43.6710 -65.3370 67° East 557 641 33,000  Level FlightAware
06:00PM 43.7190 -65.1790 67° East 556 640 33,000  Level FlightAware
06:01PM 43.7730 -64.9960 68° East 553 636 33,000  Level FlightAware
06:01PM 43.8120 -64.8680 67° East 553 636 33,000  Level FlightAware
06:02PM 43.8560 -64.7170 68° East 552 635 33,000  Level FlightAware
06:03PM 43.9050 -64.5500 68° East 551 634 33,000  Level FlightAware
06:04PM 43.9420 -64.4260 67° East 551 634 33,000  Level FlightAware
06:04PM 43.9760 -64.3150 67° East 551 634 33,000  Level FlightAware
06:05PM 44.0100 -64.2040 67° East 551 634 33,000  Level FlightAware
06:06PM 44.0520 -64.0660 67° East 551 634 33,000  Level FlightAware
06:06PM 44.0860 -63.9550 67° East 551 634 33,000  Level FlightAware
06:07PM 44.1200 -63.8440 67° East 551 634 33,000  Level FlightAware
06:08PM 44.1810 -63.5910 71° East 555 639 33,000  Level FlightAware
06:09PM 44.2190 -63.4550 69° East 555 639 33,000  Level FlightAware
06:09PM 44.2750 -63.2560 68° East 555 639 33,000  Level FlightAware
06:10PM 44.3310 -63.0560 69° East 560 644 33,000  Level FlightAware
06:11PM 44.3630 -62.9410 69° East 560 644 33,000  Level FlightAware
06:12PM 44.3940 -62.8260 69° East 560 644 33,000  Level FlightAware
06:12PM 44.4260 -62.7110 69° East 560 644 33,000  Level FlightAware
06:13PM 44.4570 -62.5960 69° East 560 644 33,000  Level FlightAware
06:14PM 44.4970 -62.4510 69° East 560 644 33,000  Level FlightAware
06:15PM 44.5280 -62.3360 69° East 560 644 33,000  Level FlightAware
06:15PM 44.5600 -62.2210 69° East 560 644 33,000  Level FlightAware
06:16PM 44.5910 -62.1050 69° East 560 644 33,000  Level FlightAware
06:17PM 44.6230 -61.9900 69° East 560 644 33,000  Level FlightAware
06:17PM 44.6620 -61.8450 69° East 560 644 33,000  Level FlightAware
06:18PM 44.6940 -61.7300 69° East 560 644 33,000  Level FlightAware
06:19PM 44.7250 -61.6140 69° East 560 644 33,000  Level FlightAware
06:19PM 44.7570 -61.4980 69° East 560 644 33,000 1,320 Level FlightAware
06:20PM 44.8667 -61.0167 69° East 570 656 34,900 1,200 Climbing Gander Center
06:21PM 44.9167 -60.8333 69° East 550 633 35,000  Climbing Moncton Center
06:22PM 44.9667 -60.6333 70° East 540 621 35,000  Level Moncton Center
06:23PM 45.0000 -60.4333 77° East 550 633 35,000 -240 Level Gander Center
06:24PM 45.0667 -60.2167 66° East 550 633 34,600 -840 Descending Gander Center
06:25PM 45.1167 -60.0000 72° East 550 633 33,400 -840 Descending Gander Center
06:26PM 45.1667 -59.8000 70° East 550 633 33,000 -240 Descending Gander Center
06:27PM 45.2167 -59.6000 70° East 550 633 33,000  Level Gander Center
06:28PM 45.2667 -59.3833 72° East 550 633 33,000  Level Gander Center
06:29PM 45.3000 -59.2000 75° East 550 633 33,000  Level Gander Center
06:30PM 45.3667 -58.9833 66° East 550 633 33,000  Level Gander Center
06:31PM 45.4167 -58.7833 70° East 550 633 33,000  Level Gander Center
06:32PM 45.4667 -58.5667 72° East 550 633 33,000  Level Gander Center
06:33PM 45.5000 -58.3500 78° East 550 633 33,000  Level Gander Center
06:34PM 45.5500 -58.1667 69° East 550 633 33,000  Level Gander Center
06:35PM 45.5833 -57.9667 77° East 550 633 33,000  Level Moncton Center
06:41PM 45.8800 -56.7460 77° East 545 627 33,000  Level FlightAware
06:42PM 45.9020 -56.6400 73° East 545 627 33,000 1,200 Level FlightAware
06:43PM 45.9350 -56.4680 75° East 535 616 34,600 1,320 Climbing FlightAware
06:43PM 45.9650 -56.3160 74° East 529 609 35,000 240 Climbing FlightAware
06:44PM 45.9910 -56.1870 74° East 528 608 35,000  Level FlightAware
06:45PM 46.0220 -56.0280 74° East 526 605 35,000  Level FlightAware
06:45PM 46.0470 -55.9000 74° East 526 605 35,000  Level FlightAware
06:46PM 46.0740 -55.7580 75° East 525 604 35,000  Level FlightAware
06:47PM 46.1020 -55.6170 74° East 525 604 35,000  Level FlightAware
06:48PM 46.1290 -55.4730 75° East 526 605 35,000  Level FlightAware
06:48PM 46.1630 -55.2960 74° East 527 606 35,000  Level FlightAware
06:49PM 46.1850 -55.1810 75° East 527 606 35,000  Level FlightAware
06:50PM 46.2080 -55.0660 74° East 527 606 35,000  Level FlightAware
06:51PM 46.2440 -54.8510 76° East 530 610 35,000  Level FlightAware
06:51PM 46.2640 -54.7390 75° East 529 609 35,000  Level FlightAware
06:52PM 46.2930 -54.5780 75° East 530 610 35,000  Level FlightAware
06:53PM 46.3220 -54.4150 75° East 529 609 35,000  Level FlightAware
06:53PM 46.3420 -54.2980 76° East 529 609 35,000  Level FlightAware
06:54PM 46.3730 -54.1240 75° East 529 609 35,000  Level FlightAware
06:55PM 46.3960 -53.9870 76° East 529 609 35,000  Level FlightAware
06:55PM 46.4200 -53.8520 75° East 528 608 35,000  Level FlightAware
06:56PM 46.4460 -53.6990 76° East 528 608 35,000  Level FlightAware
06:57PM 46.4690 -53.5620 76° East 528 608 35,000  Level FlightAware
06:58PM 46.4910 -53.4250 77° East 530 610 35,000  Level FlightAware
06:58PM 46.5180 -53.2650 76° East 530 610 35,000  Level FlightAware
06:59PM 46.5400 -53.1290 77° East 530 610 35,000  Level FlightAware
07:00PM 46.5590 -53.0110 77° East 530 610 35,000  Level FlightAware
07:01PM 46.5950 -52.7840 77° East 529 609 35,000  Level FlightAware
07:01PM 46.6180 -52.6440 77° East 529 609 35,000  Level FlightAware
07:02PM 46.6410 -52.4920 78° East 528 608 35,000  Level FlightAware
07:03PM 46.6630 -52.3520 77° East 528 608 35,000  Level FlightAware
07:03PM 46.6840 -52.2140 77° East 529 609 35,000  Level FlightAware
07:04PM 46.7090 -52.0550 77° East 530 610 35,000  Level FlightAware
07:05PM 46.7290 -51.9150 78° East 530 610 35,000  Level FlightAware
07:05PM 46.7510 -51.7740 77° East 530 610 35,000  Level FlightAware
07:06PM 46.7730 -51.6200 78° East 530 610 35,000  Level FlightAware
07:07PM 46.7950 -51.4790 77° East 531 611 35,000  Level FlightAware
07:07PM 46.8090 -51.3890 77° East 531 611 35,000  Level FlightAware
07:08PM 46.8330 -51.2410 77° East 531 611 35,000  Level FlightAware
07:09PM 46.8510 -51.1220 77° East 531 611 35,000  Level FlightAware
07:10PM 46.8700 -51.0030 77° East 531 611 35,000  Level FlightAware
07:10PM 46.8940 -50.8540 77° East 531 611 35,000  Level FlightAware
07:11PM 46.9120 -50.7350 77° East 531 611 35,000  Level FlightAware
07:12PM 46.9310 -50.6160 77° East 531 611 35,000  Level FlightAware
07:12PM 46.9500 -50.4960 77° East 531 611 35,000  Level FlightAware
07:13PM 46.9690 -50.3770 77° East 531 611 35,000  Level FlightAware
07:14PM 46.9880 -50.2580 77° East 531 611 35,000  Level FlightAware
07:15PM 47.0110 -50.1090 77° East 531 611 35,000  Level FlightAware
07:15PM 47.0300 -49.9890 77° East 531 611 35,000  Level FlightAware
07:16PM 47.0490 -49.8700 77° East 531 611 35,000  Level FlightAware
07:17PM 47.1167 -49.2167 77° East 540 621 35,000  Level Gander Center
07:18PM 47.1667 -49.0333 68° East 540 621 35,000  Level Gander Center
07:19PM 47.2333 -48.8000 67° East 540 621 35,000  Level Gander Center
07:20PM 47.2833 -48.6167 68° East 550 633 35,000  Level Gander Center
07:21PM 47.3167 -48.4000 77° East 550 633 35,000  Level Gander Center
07:22PM 47.3667 -48.1667 72° East 540 621 35,000  Level Gander Center
07:23PM 47.4167 -47.9833 68° East 550 633 35,000  Level Gander Center
07:24PM 47.4667 -47.7500 72° East 560 644 35,000  Level Gander Center
07:25PM 47.5167 -47.5500 70° East 550 633 35,000  Level Gander Center
07:26PM 47.5667 -47.3500 70° East 550 633 35,000  Level Gander Center
07:27PM 47.6167 -47.1000 73° East 550 633 35,000  Level Gander Center
07:28PM 47.6500 -46.9167 75° East 550 633 35,000  Level Gander Center
07:29PM 47.7167 -46.6833 67° East 550 633 35,000  Level Gander Center
07:30PM 47.7667 -46.4833 70° East 560 644 35,000  Level Gander Center
07:32PM 47.8281 -46.2196 71° East  Level FlightAware Approximate
07:39PM 48.1404 -44.8247 71° East  Level FlightAware Approximate
07:40PM 48.1837 -44.6241 72° East  Level FlightAware Approximate
07:41PM 48.2266 -44.4231 72° East  Level FlightAware Approximate
07:42PM 48.2691 -44.2218 72° East  Level FlightAware Approximate
07:43PM 48.3113 -44.0202 72° East  Level FlightAware Approximate
07:44PM 48.3530 -43.8174 74° East  Level FlightAware Approximate
07:45PM 48.3912 -43.6136 74° East  Level FlightAware Approximate
07:46PM 48.4290 -43.4096 74° East  Level FlightAware Approximate
07:47PM 48.4664 -43.2052 74° East  Level FlightAware Approximate
07:48PM 48.5035 -43.0005 75° East  Level FlightAware Approximate
07:49PM 48.5402 -42.7956 75° East  Level FlightAware Approximate
07:50PM 48.5766 -42.5903 75° East  Level FlightAware Approximate
07:51PM 48.6126 -42.3847 75° East  Level FlightAware Approximate
07:52PM 48.6482 -42.1789 75° East  Level FlightAware Approximate
07:53PM 48.6835 -41.9727 75° East  Level FlightAware Approximate
07:54PM 48.7184 -41.7663 76° East  Level FlightAware Approximate
07:55PM 48.7529 -41.5596 76° East  Level FlightAware Approximate
07:56PM 48.7870 -41.3526 76° East  Level FlightAware Approximate
07:57PM 48.8208 -41.1453 76° East  Level FlightAware Approximate
07:58PM 48.8542 -40.9378 76° East  Level FlightAware Approximate
07:59PM 48.8873 -40.7299 76° East  Level FlightAware Approximate
08:00PM 48.9199 -40.5218 76° East  Level FlightAware Approximate
08:01PM 48.9522 -40.3134 77° East  Level FlightAware Approximate
08:02PM 48.9841 -40.1048 77° East  Level FlightAware Approximate
08:03PM 49.0152 -39.8957 77° East  Level FlightAware Approximate
08:04PM 49.0453 -39.6862 78° East  Level FlightAware Approximate
08:05PM 49.0751 -39.4764 78° East  Level FlightAware Approximate
08:06PM 49.1045 -39.2664 78° East  Level FlightAware Approximate
08:07PM 49.1335 -39.0561 78° East  Level FlightAware Approximate
08:08PM 49.1621 -38.8456 78° East  Level FlightAware Approximate
08:09PM 49.1904 -38.6349 78° East  Level FlightAware Approximate
08:10PM 49.2182 -38.4239 78° East  Level FlightAware Approximate
08:11PM 49.2457 -38.2127 79° East  Level FlightAware Approximate
08:12PM 49.2728 -38.0012 79° East  Level FlightAware Approximate
08:13PM 49.2995 -37.7895 79° East  Level FlightAware Approximate
08:14PM 49.3258 -37.5776 79° East  Level FlightAware Approximate
08:15PM 49.3517 -37.3655 79° East  Level FlightAware Approximate
08:16PM 49.3773 -37.1531 79° East  Level FlightAware Approximate
08:17PM 49.4024 -36.9405 80° East  Level FlightAware Approximate
08:18PM 49.4272 -36.7277 80° East  Level FlightAware Approximate
08:19PM 49.4516 -36.5147 80° East  Level FlightAware Approximate
08:20PM 49.4756 -36.3015 80° East  Level FlightAware Approximate
08:21PM 49.4991 -36.0881 80° East  Level FlightAware Approximate
08:22PM 49.5223 -35.8744 80° East  Level FlightAware Approximate
08:23PM 49.5451 -35.6606 81° East  Level FlightAware Approximate
08:24PM 49.5675 -35.4466 81° East  Level FlightAware Approximate
08:25PM 49.5896 -35.2323 81° East  Level FlightAware Approximate
08:26PM 49.6112 -35.0179 81° East  Level FlightAware Approximate
08:27PM 49.6324 -34.8033 81° East  Level FlightAware Approximate
08:28PM 49.6532 -34.5885 81° East  Level FlightAware Approximate
08:29PM 49.6736 -34.3735 82° East  Level FlightAware Approximate
08:30PM 49.6937 -34.1584 82° East  Level FlightAware Approximate
08:31PM 49.7133 -33.9431 82° East  Level FlightAware Approximate
08:32PM 49.7325 -33.7276 82° East  Level FlightAware Approximate
08:33PM 49.7514 -33.5119 82° East  Level FlightAware Approximate
08:34PM 49.7698 -33.2960 82° East  Level FlightAware Approximate
08:35PM 49.7878 -33.0800 83° East  Level FlightAware Approximate
08:36PM 49.8054 -32.8639 83° East  Level FlightAware Approximate
08:37PM 49.8226 -32.6476 83° East  Level FlightAware Approximate
08:38PM 49.8395 -32.4311 83° East  Level FlightAware Approximate
08:39PM 49.8559 -32.2145 83° East  Level FlightAware Approximate
08:40PM 49.8719 -31.9977 83° East  Level FlightAware Approximate
08:41PM 49.8875 -31.7808 84° East  Level FlightAware Approximate
08:42PM 49.9027 -31.5638 84° East  Level FlightAware Approximate
08:43PM 49.9175 -31.3466 84° East  Level FlightAware Approximate
08:44PM 49.9319 -31.1293 84° East  Level FlightAware Approximate
08:45PM 49.9459 -30.9118 84° East  Level FlightAware Approximate
08:46PM 49.9594 -30.6943 84° East  Level FlightAware Approximate
08:47PM 49.9726 -30.4766 85° East  Level FlightAware Approximate
08:48PM 49.9854 -30.2588 85° East  Level FlightAware Approximate
08:49PM 49.9977 -30.0409 85° East  Level FlightAware Approximate
08:50PM 50.0243 -29.8263 78° East  Level FlightAware Approximate
08:51PM 50.0539 -29.6122 78° East  Level FlightAware Approximate
08:52PM 50.0831 -29.3979 78° East  Level FlightAware Approximate
08:53PM 50.1120 -29.1833 78° East  Level FlightAware Approximate
08:54PM 50.1404 -28.9685 78° East  Level FlightAware Approximate
08:55PM 50.1684 -28.7534 78° East  Level FlightAware Approximate
08:56PM 50.1968 -28.5382 78° East  Level FlightAware Approximate
08:57PM 50.2248 -28.3229 78° East  Level FlightAware Approximate
08:58PM 50.2524 -28.1073 79° East  Level FlightAware Approximate
08:59PM 50.2795 -27.8914 79° East  Level FlightAware Approximate
09:00PM 50.3063 -27.6753 79° East  Level FlightAware Approximate
09:01PM 50.3327 -27.4589 79° East  Level FlightAware Approximate
09:02PM 50.3587 -27.2423 79° East  Level FlightAware Approximate
09:03PM 50.3842 -27.0255 79° East  Level FlightAware Approximate
09:04PM 50.4094 -26.8084 80° East  Level FlightAware Approximate
09:05PM 50.4342 -26.5912 80° East  Level FlightAware Approximate
09:06PM 50.4585 -26.3736 80° East  Level FlightAware Approximate
09:07PM 50.4824 -26.1559 80° East  Level FlightAware Approximate
09:08PM 50.5058 -25.9379 80° East  Level FlightAware Approximate
09:09PM 50.5289 -25.7197 80° East  Level FlightAware Approximate
09:10PM 50.5515 -25.5013 81° East  Level FlightAware Approximate
09:11PM 50.5737 -25.2827 81° East  Level FlightAware Approximate
09:12PM 50.5955 -25.0639 81° East  Level FlightAware Approximate
09:13PM 50.6169 -24.8448 81° East  Level FlightAware Approximate
09:14PM 50.6379 -24.6256 81° East  Level FlightAware Approximate
09:15PM 50.6585 -24.4062 82° East  Level FlightAware Approximate
09:16PM 50.6786 -24.1866 82° East  Level FlightAware Approximate
09:17PM 50.6984 -23.9668 82° East  Level FlightAware Approximate
09:18PM 50.7177 -23.7468 82° East  Level FlightAware Approximate
09:19PM 50.7366 -23.5267 82° East  Level FlightAware Approximate
09:20PM 50.7551 -23.3063 82° East  Level FlightAware Approximate
09:21PM 50.7732 -23.0858 83° East  Level FlightAware Approximate
09:22PM 50.7909 -22.8652 83° East  Level FlightAware Approximate
09:23PM 50.8082 -22.6443 83° East  Level FlightAware Approximate
09:24PM 50.8258 -22.4235 82° East  Level FlightAware Approximate
09:25PM 50.8438 -22.2026 83° East  Level FlightAware Approximate
09:26PM 50.8614 -21.9816 83° East  Level FlightAware Approximate
09:27PM 50.8786 -21.7604 83° East  Level FlightAware Approximate
09:28PM 50.8953 -21.5391 83° East  Level FlightAware Approximate
09:29PM 50.9117 -21.3176 83° East  Level FlightAware Approximate
09:30PM 50.9276 -21.0959 83° East  Level FlightAware Approximate
09:31PM 50.9431 -20.8741 84° East  Level FlightAware Approximate
09:32PM 50.9582 -20.6521 84° East  Level FlightAware Approximate
09:33PM 50.9728 -20.4300 84° East  Level FlightAware Approximate
09:34PM 50.9871 -20.2078 84° East  Level FlightAware Approximate
09:35PM 51.0019 -19.9857 78° East  Level FlightAware Approximate
09:36PM 51.0299 -19.7666 78° East  Level FlightAware Approximate
09:37PM 51.0576 -19.5473 79° East  Level FlightAware Approximate
09:38PM 51.0849 -19.3277 79° East  Level FlightAware Approximate
09:39PM 51.1118 -19.1079 79° East  Level FlightAware Approximate
09:40PM 51.1382 -18.8878 79° East  Level FlightAware Approximate
09:41PM 51.1642 -18.6675 79° East  Level FlightAware Approximate
09:42PM 51.1899 -18.4469 79° East  Level FlightAware Approximate
09:43PM 51.2151 -18.2261 80° East  Level FlightAware Approximate
09:44PM 51.2399 -18.0051 80° East  Level FlightAware Approximate
09:45PM 51.2642 -17.7838 80° East  Level FlightAware Approximate
09:46PM 51.2882 -17.5622 80° East  Level FlightAware Approximate
09:47PM 51.3117 -17.3405 80° East  Level FlightAware Approximate
09:48PM 51.3349 -17.1185 80° East  Level FlightAware Approximate
09:49PM 51.3576 -16.8963 81° East  Level FlightAware Approximate
09:50PM 51.3798 -16.6738 81° East  Level FlightAware Approximate
09:51PM 51.4017 -16.4512 81° East  Level FlightAware Approximate
09:52PM 51.4231 -16.2283 81° East  Level FlightAware Approximate
09:53PM 51.4441 -16.0053 81° East  Level FlightAware Approximate
09:54PM 51.4647 -15.7820 81° East  Level FlightAware Approximate
09:55PM 51.4849 -15.5586 82° East  Level FlightAware Approximate
09:56PM 51.5046 -15.3349 82° East  Level FlightAware Approximate
09:57PM 51.5239 -15.1110 82° East  Level FlightAware Approximate
09:58PM 51.5429 -14.8870 82° East  Level FlightAware Approximate
09:59PM 51.5617 -14.6628 82° East  Level FlightAware Approximate
10:00PM 51.5799 -14.4385 82° East  Level FlightAware Approximate
10:01PM 51.5978 -14.2139 83° East  Level FlightAware Approximate
10:02PM 51.6152 -13.9892 83° East  Level FlightAware Approximate
10:03PM 51.6323 -13.7644 83° East  Level FlightAware Approximate
10:04PM 51.6488 -13.5393 83° East  Level FlightAware Approximate
10:05PM 51.6650 -13.3141 83° East  Level FlightAware Approximate
10:06PM 51.6807 -13.0888 83° East  Level FlightAware Approximate
10:07PM 51.6960 -12.8632 84° East  Level FlightAware Approximate
10:08PM 51.7108 -12.6376 84° East  Level FlightAware Approximate
10:09PM 51.7253 -12.4118 84° East  Level FlightAware Approximate
10:10PM 51.7392 -12.1858 84° East  Level FlightAware Approximate
10:11PM 51.7528 -11.9597 84° East  Level FlightAware Approximate
10:12PM 51.7659 -11.7335 85° East  Level FlightAware Approximate
10:13PM 51.7786 -11.5071 85° East  Level FlightAware Approximate
10:14PM 51.7908 -11.2807 85° East  Level FlightAware Approximate
10:15PM 51.8027 -11.0541 85° East  Level FlightAware Approximate
10:15PM 51.4480 -11.2290 85° East 510 587 36,000  Level FlightAware
10:15PM 51.4660 -11.0650 80° East 513 590 36,000  Level FlightAware
10:16PM 51.4850 -10.8920 80° East 514 592 36,000  Level FlightAware
10:17PM 51.5060 -10.7010 80° East 515 593 36,000  Level FlightAware
10:18PM 51.5240 -10.5310 80° East 515 593 36,000  Level FlightAware
10:18PM 51.5400 -10.3790 80° East 516 594 36,000  Level FlightAware
10:19PM 51.5550 -10.2410 80° East 516 594 36,000  Level FlightAware
10:20PM 51.5810 -9.9910 80° East 516 594 36,000  Level FlightAware
10:21PM 51.5980 -9.8220 81° East 518 596 36,000  Level FlightAware
10:22PM 51.6160 -9.6430 81° East 519 597 36,000  Level FlightAware
10:22PM 51.6300 -9.4960 81° East 519 597 36,000  Level FlightAware
10:23PM 51.6480 -9.3150 81° East 517 595 36,000  Level FlightAware
10:24PM 51.6630 -9.1630 81° East 515 593 36,000  Level FlightAware
10:24PM 51.6770 -9.0110 81° East 513 590 36,000 -2,220 Level FlightAware
10:24PM 51.6746 -8.9632 81° East 454 522 34,500 -4,740 Descending FlightAware UK
10:25PM 51.6805 -8.8947 81° East 454 522 34,500  Level FlightAware UK
10:25PM 51.6864 -8.8266 82° East 452 520 34,500 3,420 Level FlightAware UK
10:25PM 51.6930 -8.8460 82° East 512 589 36,000  Climbing FlightAware
10:25PM 51.6943 -8.7357 82° East 454 522 34,500 -2,700 Descending FlightAware UK
10:26PM 51.7003 -8.6677 82° East 454 522 34,500 3,060 Level FlightAware UK
10:26PM 51.7090 -8.6760 82° East 512 589 36,000  Climbing FlightAware
10:26PM 51.7099 -8.5542 82° East 454 522 34,500 -2,460 Descending FlightAware UK
10:26PM 51.7155 -8.4862 82° East 452 520 34,500  Level FlightAware UK
10:27PM 51.7212 -8.4182 82° East 452 520 34,500  Level FlightAware UK
10:27PM 51.7267 -8.3500 83° East 452 520 34,500 3,600 Level FlightAware UK
10:27PM 51.7370 -8.3650 83° East 512 589 36,000  Climbing FlightAware
10:27PM 51.7342 -8.2594 83° East 452 520 34,500 -2,580 Descending FlightAware UK
10:28PM 51.7399 -8.1906 82° East 450 518 34,500  Level FlightAware UK
10:28PM 51.7457 -8.1226 82° East 452 520 34,500 2,520 Level FlightAware UK
10:28PM 51.7590 -8.1120 82° East 510 587 36,000  Climbing FlightAware
10:28PM 51.7513 -8.0546 82° East 452 520 34,500 -4,740 Descending FlightAware UK
10:29PM 51.7567 -7.9866 82° East 450 518 34,500  Level FlightAware UK
10:29PM 51.7620 -7.9186 83° East 450 518 34,500  Level FlightAware UK
10:29PM 51.7672 -7.8504 83° East 448 516 34,500 2,700 Level FlightAware UK
10:29PM 51.7820 -7.8370 83° East 514 592 36,000  Climbing FlightAware
10:30PM 51.7725 -7.7823 83° East 448 516 34,500 -6,000 Descending FlightAware UK
10:30PM 51.7760 -7.7367 83° East 448 516 34,500  Level FlightAware UK
10:30PM 51.7812 -7.6684 83° East 448 516 34,500  Level FlightAware UK
10:30PM 51.7866 -7.6000 83° East 448 516 34,500 3,300 Level FlightAware UK
10:30PM 51.8000 -7.6260 83° East 515 593 36,000  Climbing FlightAware
10:31PM 51.7936 -7.5080 83° East 452 520 34,500 -2,760 Descending FlightAware UK
10:31PM 51.7985 -7.4394 83° East 450 518 34,500  Level FlightAware UK
10:31PM 51.8033 -7.3708 84° East 450 518 34,500  Level FlightAware UK
10:32PM 51.8084 -7.3022 83° East 450 518 34,500 3,060 Level FlightAware UK
10:32PM 51.8250 -7.3140 83° East 517 595 36,000  Climbing FlightAware
10:32PM 51.8169 -7.1878 83° East 450 518 34,500 -2,460 Descending FlightAware UK
10:32PM 51.8218 -7.1191 83° East 450 518 34,500 3,420 Level FlightAware UK
10:33PM 51.8390 -7.1380 83° East 518 596 36,000  Climbing FlightAware
10:33PM 51.8286 -7.0273 83° East 450 518 34,500 -2,700 Descending FlightAware UK
10:33PM 51.8335 -6.9583 83° East 450 518 34,500 3,720 Level FlightAware UK
10:33PM 51.8500 -6.9880 83° East 520 598 36,000  Climbing FlightAware
10:34PM 51.8398 -6.8660 83° East 450 518 34,500 -2,520 Descending FlightAware UK
10:34PM 51.8446 -6.7958 84° East 454 522 34,500 3,300 Level FlightAware UK
10:34PM 51.8640 -6.8120 84° East 522 601 36,000  Climbing FlightAware
10:34PM 51.8509 -6.7032 84° East 452 520 34,500 -2,760 Descending FlightAware UK
10:35PM 51.8556 -6.6335 84° East 452 520 34,500 3,600 Level FlightAware UK
10:35PM 51.8750 -6.6540 84° East 523 602 36,000  Climbing FlightAware
10:35PM 51.8620 -6.5406 84° East 452 520 34,500 -2,580 Descending FlightAware UK
10:35PM 51.8669 -6.4708 84° East 452 520 34,500 3,900 Level FlightAware UK
10:35PM 51.8870 -6.4990 84° East 524 603 36,000  Climbing FlightAware
10:36PM 51.8728 -6.3777 84° East 452 520 34,500 -2,460 Descending FlightAware UK
10:36PM 51.8773 -6.3071 84° East 454 522 34,500 3,420 Level FlightAware UK
10:36PM 51.8990 -6.3250 84° East 526 605 36,000  Climbing FlightAware
10:36PM 51.8832 -6.2137 84° East 456 525 34,500 -2,700 Descending FlightAware UK
10:37PM 51.8875 -6.1436 84° East 456 525 34,500 3,720 Level FlightAware UK
10:37PM 51.9100 -6.1650 84° East 527 606 36,000  Climbing FlightAware
10:37PM 51.8934 -6.0499 84° East 456 525 34,500 -2,460 Descending FlightAware UK
10:37PM 51.8979 -5.9789 84° East 456 525 34,500 3,300 Level FlightAware UK
10:37PM 51.9220 -5.9850 84° East 526 605 36,000  Climbing FlightAware
10:38PM 51.9036 -5.8859 84° East 456 525 34,500 -2,700 Descending FlightAware UK
10:38PM 51.9078 -5.8149 84° East 456 525 34,500 3,600 Level FlightAware UK
10:38PM 51.9320 -5.8270 84° East 526 605 36,000  Climbing FlightAware
10:38PM 51.9134 -5.7212 84° East 456 525 34,500 -2,580 Descending FlightAware UK
10:39PM 51.9177 -5.6518 84° East 458 527 34,500 4,080 Level FlightAware UK
10:39PM 51.9420 -5.6700 84° East 528 608 36,000  Climbing FlightAware
10:39PM 51.9233 -5.5572 84° East 458 527 34,500 -2,460 Descending FlightAware UK
10:39PM 51.9273 -5.4876 85° East 456 525 34,500 3,600 Level FlightAware UK
10:40PM 51.9530 -5.4970 85° East 527 606 36,000  Climbing FlightAware
10:40PM 51.9329 -5.3934 85° East 458 527 34,500 -2,580 Descending FlightAware UK
10:40PM 51.9366 -5.3231 85° East 458 527 34,500 3,900 Level FlightAware UK
10:40PM 51.9630 -5.3400 85° East 527 606 36,000  Climbing FlightAware
10:41PM 51.9419 -5.2295 85° East 456 525 34,500 -2,460 Descending FlightAware UK
10:41PM 51.9458 -5.1593 85° East 456 525 34,500 3,420 Level FlightAware UK
10:41PM 51.9730 -5.1600 85° East 527 606 36,000  Climbing FlightAware
10:41PM 51.9509 -5.0655 85° East 456 525 34,500 -2,700 Descending FlightAware UK
10:42PM 51.9546 -4.9951 85° East 458 527 34,500 4,260 Level FlightAware UK
10:42PM 51.9816 -5.0101 85° East 527 606 36,000  Climbing FlightAware ADS-B
10:42PM 51.9585 -4.9245 85° East 456 525 34,500 -2,760 Descending FlightAware UK
10:42PM 51.9625 -4.8540 85° East 456 525 34,500 3,180 Level FlightAware UK
10:42PM 51.9910 -4.8450 85° East 527 606 36,000 3,900 Climbing FlightAware
10:43PM 51.9940 -4.7886 85° East 527 606 36,000 -2,820 Level FlightAware ADS-B
10:43PM 51.9708 -4.6888 85° East 456 525 34,500  Descending FlightAware UK
10:43PM 52.0002 -4.6704 85° East 526 605 36,000  Climbing FlightAware ADS-B
10:43PM 51.9765 -4.5717 85° East 454 522 34,500  Descending FlightAware UK
10:44PM 52.0063 -4.5526 85° East 526 605 36,000  Climbing FlightAware ADS-B
10:44PM 51.9822 -4.4555 85° East 450 518 34,500  Descending FlightAware UK
10:44PM 52.0127 -4.4311 85° East 527 606 36,000  Climbing FlightAware ADS-B
10:44PM 51.9880 -4.3376 85° East 450 518 34,500  Descending FlightAware UK
10:45PM 52.0187 -4.3085 85° East 527 606 36,000  Climbing FlightAware ADS-B
10:45PM 51.9936 -4.2198 85° East 450 518 34,500  Descending FlightAware UK
10:45PM 52.0251 -4.1788 85° East 528 608 36,000  Climbing FlightAware ADS-B
10:45PM 52.0001 -4.0775 85° East 454 522 34,500  Descending FlightAware UK
10:46PM 52.0307 -4.0574 85° East 529 609 36,000  Climbing FlightAware ADS-B
10:46PM 52.0054 -3.9607 85° East 454 522 34,500  Descending FlightAware UK
10:46PM 52.0362 -3.9391 85° East 528 608 36,000  Climbing FlightAware ADS-B
10:46PM 52.0103 -3.8427 85° East 452 520 34,500  Descending FlightAware UK
10:47PM 52.0417 -3.8145 85° East 528 608 36,000  Climbing FlightAware ADS-B
10:47PM 52.0155 -3.7232 85° East 454 522 34,500  Descending FlightAware UK
10:47PM 52.0470 -3.6921 85° East 528 608 36,000  Climbing FlightAware ADS-B
10:47PM 52.0203 -3.6077 85° East 454 522 34,500 -2,700 Descending FlightAware UK
10:48PM 52.0232 -3.5362 86° East 454 522 34,500 4,080 Level FlightAware UK
10:48PM 52.0534 -3.5395 86° East 529 609 36,000  Climbing FlightAware ADS-B
10:48PM 52.0271 -3.4410 86° East 454 522 34,500  Descending FlightAware UK
10:48PM 52.0584 -3.4186 86° East 528 608 36,000  Climbing FlightAware ADS-B
10:49PM 52.0317 -3.3224 86° East 450 518 34,500  Descending FlightAware UK
10:49PM 52.0630 -3.2996 86° East 526 605 36,000  Climbing FlightAware ADS-B
10:49PM 52.0364 -3.2050 86° East 448 516 34,500  Descending FlightAware UK
10:49PM 52.0677 -3.1764 86° East 525 604 36,000  Climbing FlightAware ADS-B
10:50PM 52.0406 -3.0873 86° East 446 513 34,500 -2,460 Descending FlightAware UK
10:50PM 52.0432 -3.0172 87° East 448 516 34,500 3,720 Level FlightAware UK
10:50PM 52.0730 -3.0210 87° East 522 601 36,000 6,900 Climbing FlightAware
10:50PM 52.0747 -2.9806 86° East 524 603 36,000 -3,780 Level FlightAware ADS-B
10:50PM 52.0473 -2.9015 86° East 448 516 34,500  Descending FlightAware UK
10:51PM 52.0788 -2.8606 86° East 525 604 36,000  Climbing FlightAware ADS-B
10:51PM 52.0516 -2.7845 86° East 450 518 34,500  Descending FlightAware UK
10:51PM 52.0827 -2.7409 86° East 528 608 36,000  Climbing FlightAware ADS-B
10:51PM 52.0554 -2.6669 86° East 452 520 34,500  Descending FlightAware UK
10:52PM 52.0867 -2.6201 86° East 528 608 36,000  Climbing FlightAware ADS-B
10:52PM 52.0593 -2.5493 86° East 450 518 34,500  Descending FlightAware UK
10:52PM 52.0903 -2.5016 86° East 528 608 36,000  Climbing FlightAware ADS-B
10:52PM 52.0631 -2.4306 86° East 452 520 34,500  Descending FlightAware UK
10:53PM 52.0939 -2.3821 86° East 529 609 36,000  Climbing FlightAware ADS-B
10:53PM 52.0668 -2.3118 86° East 452 520 34,500  Descending FlightAware UK
10:53PM 52.0974 -2.2625 86° East 531 611 36,000  Climbing FlightAware ADS-B
10:53PM 52.0705 -2.1934 86° East 454 522 34,500  Descending FlightAware UK
10:54PM 52.1006 -2.1432 86° East 531 611 36,000  Climbing FlightAware ADS-B
10:54PM 52.0738 -2.0738 86° East 456 525 34,500  Descending FlightAware UK
10:54PM 52.1037 -2.0232 86° East 530 610 36,000  Climbing FlightAware ADS-B
10:55PM 52.0778 -1.9323 86° East 454 522 34,500  Descending FlightAware UK
10:55PM 52.1066 -1.9032 86° East 530 610 36,000  Climbing FlightAware ADS-B
10:55PM 52.0809 -1.8139 86° East 454 522 34,500  Descending FlightAware UK
10:55PM 52.1095 -1.7834 86° East 530 610 36,000  Climbing FlightAware ADS-B
10:56PM 52.0840 -1.6962 86° East 456 525 34,500  Descending FlightAware UK
10:56PM 52.1121 -1.6624 86° East 531 611 36,000  Climbing FlightAware ADS-B
10:56PM 52.0868 -1.5767 86° East 456 525 34,500  Descending FlightAware UK
10:56PM 52.1147 -1.5422 86° East 531 611 36,000  Climbing FlightAware ADS-B
10:57PM 52.0896 -1.4586 86° East 456 525 34,500  Descending FlightAware UK
10:57PM 52.1171 -1.4227 86° East 531 611 36,000  Climbing FlightAware ADS-B
10:57PM 52.0924 -1.3381 86° East 454 522 34,500  Descending FlightAware UK
10:57PM 52.1193 -1.3027 86° East 529 609 36,000  Climbing FlightAware ADS-B
10:58PM 52.0949 -1.2179 86° East 452 520 34,500  Descending FlightAware UK
10:58PM 52.1216 -1.1829 86° East 529 609 36,000  Climbing FlightAware ADS-B
10:58PM 52.0975 -1.0980 86° East 454 522 34,500  Descending FlightAware UK
10:58PM 52.1234 -1.0629 86° East 530 610 36,000  Climbing FlightAware ADS-B
10:59PM 52.0996 -0.9827 86° East 454 522 34,500  Descending FlightAware UK
10:59PM 52.1251 -0.9429 86° East 531 611 36,000  Climbing FlightAware ADS-B
10:59PM 52.1018 -0.8623 86° East 456 525 34,500  Descending FlightAware UK
10:59PM 52.1269 -0.8219 86° East 531 611 36,000  Climbing FlightAware ADS-B
11:00PM 52.1040 -0.7417 86° East 456 525 34,500  Descending FlightAware UK
11:00PM 52.1284 -0.7018 86° East 530 610 36,000  Climbing FlightAware ADS-B
11:00PM 52.1061 -0.6203 86° East 452 520 34,500  Descending FlightAware UK
11:00PM 52.1299 -0.5824 86° East 530 610 36,000  Climbing FlightAware ADS-B
11:01PM 52.1078 -0.5016 86° East 454 522 34,500  Descending FlightAware UK
11:01PM 52.1312 -0.4614 86° East 531 611 36,000  Climbing FlightAware ADS-B
11:01PM 52.1094 -0.3845 86° East 454 522 34,500  Descending FlightAware UK
11:01PM 52.1322 -0.3419 86° East 531 611 36,000  Climbing FlightAware ADS-B
11:02PM 52.1111 -0.2656 86° East 454 522 34,500  Descending FlightAware UK
11:02PM 52.1332 -0.2203 86° East 531 611 36,000  Climbing FlightAware ADS-B
11:02PM 52.1126 -0.1466 86° East 454 522 34,500  Descending FlightAware UK
11:02PM 52.1341 -0.1008 86° East 531 611 36,000  Climbing FlightAware ADS-B
11:03PM 52.1141 -0.0251 86° East 454 522 34,500  Descending FlightAware UK
11:03PM 52.1348 0.0202 86° East 531 611 36,000  Climbing FlightAware ADS-B
11:03PM 52.1153 0.0925 86° East 454 522 34,500  Descending FlightAware UK
11:03PM 52.1354 0.1413 86° East 531 611 36,000  Climbing FlightAware ADS-B
11:04PM 52.1164 0.2116 86° East 454 522 34,500  Descending FlightAware UK
11:04PM 52.1360 0.2631 86° East 531 611 36,000  Climbing FlightAware ADS-B
11:04PM 52.1175 0.3316 86° East 454 522 34,500  Descending FlightAware UK
11:04PM 52.1361 0.3842 86° East 531 611 36,000  Climbing FlightAware ADS-B
11:05PM 52.1183 0.4501 86° East 454 522 34,500  Descending FlightAware UK
11:05PM 52.1363 0.5037 86° East 530 610 36,000  Climbing FlightAware ADS-B
11:05PM 52.1189 0.5711 86° East 452 520 34,500 -2,580 Descending FlightAware UK
11:05PM 52.1194 0.6416 89° East 452 520 34,500 4,260 Level FlightAware UK
11:05PM 52.1365 0.6545 89° East 529 609 36,000  Climbing FlightAware ADS-B
11:06PM 52.1197 0.7130 89° East 452 520 34,500 -2,760 Descending FlightAware UK
11:06PM 52.1200 0.7858 90° East 452 520 34,500 3,900 Level FlightAware UK
11:06PM 52.1363 0.8067 90° East 528 608 36,000  Climbing FlightAware ADS-B
11:06PM 52.1203 0.8806 90° East 452 520 34,500  Descending FlightAware UK
11:07PM 52.1361 0.9270 90° East 528 608 36,000  Climbing FlightAware ADS-B
11:07PM 52.1207 0.9991 90° East 450 518 34,500  Descending FlightAware UK
11:07PM 52.1356 1.0480 90° East 526 605 36,000  Climbing FlightAware ADS-B
11:07PM 52.1209 1.1183 90° East 450 518 34,500 -2,520 Descending FlightAware UK
11:08PM 52.1209 1.1876 90° East 450 518 34,500 4,680 Level FlightAware UK
11:08PM 52.1351 1.1915 90° East 525 604 36,000  Climbing FlightAware ADS-B
11:08PM 52.1209 1.2592 90° East 450 518 34,500 -2,580 Descending FlightAware UK
11:08PM 52.1208 1.3307 90° East 452 520 34,500 3,720 Level FlightAware UK
11:08PM 52.1341 1.3552 90° East 525 604 36,000  Climbing FlightAware ADS-B
11:09PM 52.1207 1.4251 90° East 456 525 34,500 -2,520 Descending FlightAware UK
11:09PM 52.1206 1.4958 90° East 452 520 34,500  Level FlightAware UK
11:09PM 52.1205 1.5648 90° East 452 520 34,500  Level FlightAware UK
11:10PM 52.1204 1.6354 90° East 452 520 34,500  Level FlightAware UK
11:10PM 52.1201 1.7067 90° East 452 520 34,500 2,520 Level FlightAware UK
11:10PM 52.1308 1.7623 90° East 36,000 5,280 Climbing FlightAware ADS-B
11:10PM 52.1306 1.7741 92° East 522 601 36,000 -4,140 Level FlightAware ADS-B
11:10PM 52.1193 1.8476 92° East 452 520 34,500  Descending FlightAware UK
11:11PM 52.1291 1.9118 92° East 521 600 36,000 2,760 Climbing FlightAware ADS-B
11:11PM 52.1284 1.9726 91° East 520 598 36,000 -2,820 Level FlightAware ADS-B
11:11PM 52.1137 2.0343 91° East 450 518 34,500  Descending FlightAware UK
11:11PM 52.1228 2.0412 91° East 518 596 36,000  Climbing FlightAware ADS-B
11:12PM 52.1045 2.1040 91° East 452 520 34,500 -2,700 Descending FlightAware UK
11:12PM 52.0953 2.1711 103° East 452 520 34,500  Level FlightAware UK
11:12PM 52.0857 2.2389 103° East 452 520 34,500 3,600 Level FlightAware UK
11:12PM 52.0930 2.2510 103° East 516 594 36,000 3,720 Climbing FlightAware
11:13PM 52.0822 2.3281 103° East 516 594 36,000 -2,520 Level FlightAware ADS-B
11:13PM 52.0647 2.3997 103° East 452 520 34,500  Descending FlightAware UK
11:13PM 52.0666 2.4486 103° East 518 596 36,000  Climbing FlightAware ADS-B
11:13PM 52.0513 2.5139 103° East 450 518 34,500  Descending FlightAware UK
11:13PM 52.0578 2.5160 103° East 516 594 36,000  Climbing FlightAware ADS-B
11:14PM 52.0424 2.5819 103° East 450 518 34,500  Descending FlightAware UK
11:14PM 52.0407 2.6292 103° East 514 592 36,000  Climbing FlightAware ADS-B
11:14PM 52.0244 2.6937 103° East 446 513 34,500  Descending FlightAware UK
11:14PM 52.0227 2.7425 103° East 515 593 36,000  Climbing FlightAware ADS-B
11:15PM 52.0074 2.8060 103° East 448 516 34,500 -2,580 Descending FlightAware UK
11:15PM 51.9971 2.8735 104° East 450 518 34,500 4,980 Level FlightAware UK
11:15PM 52.0021 2.8750 104° East 517 595 36,000  Climbing FlightAware ADS-B
11:15PM 51.9871 2.9412 104° East 450 518 34,500 -2,520 Descending FlightAware UK
11:16PM 51.9772 3.0090 103° East 450 518 34,500 3,000 Level FlightAware UK
11:16PM 51.9750 3.0470 103° East 516 594 36,000  Climbing FlightAware
11:16PM 51.9603 3.1218 103° East 450 518 34,500 -2,520 Descending FlightAware UK
11:16PM 51.9500 3.1895 104° East 450 518 34,500 3,300 Level FlightAware UK
11:17PM 51.9490 3.2170 104° East 516 594 36,000  Climbing FlightAware
11:17PM 51.9363 3.2797 104° East 450 518 34,500 -2,760 Descending FlightAware UK
11:17PM 51.9259 3.3481 104° East 450 518 34,500 3,600 Level FlightAware UK
11:17PM 51.9250 3.3660 104° East 517 595 36,000  Climbing FlightAware
11:17PM 51.9120 3.4382 104° East 452 520 34,500 -2,580 Descending FlightAware UK
11:18PM 51.9018 3.5058 104° East 452 520 34,500 3,180 Level FlightAware UK
11:18PM 51.8990 3.5310 104° East 515 593 36,000  Climbing FlightAware
11:18PM 51.8843 3.6181 104° East 452 520 34,500 -2,400 Descending FlightAware UK
11:19PM 51.8737 3.6853 104° East 454 522 34,500 4,500 Level FlightAware UK
11:19PM 51.8750 3.6810 104° East 515 593 36,000  Climbing FlightAware
11:19PM 51.8630 3.7526 104° East 454 522 34,500 -2,700 Descending FlightAware UK
11:19PM 51.8522 3.8198 105° East 454 522 34,500 3,720 Level FlightAware UK
11:19PM 51.8500 3.8290 105° East 516 594 36,000  Climbing FlightAware
11:20PM 51.8380 3.9095 105° East 454 522 34,500 -2,520 Descending FlightAware UK
11:20PM 51.8271 3.9767 105° East 454 522 34,500 3,300 Level FlightAware UK
11:20PM 51.8220 4.0010 105° East 516 594 36,000  Climbing FlightAware
11:20PM 51.8129 4.0664 105° East 454 522 34,500 -2,760 Descending FlightAware UK
11:21PM 51.8019 4.1336 105° East 452 520 34,500 3,600 Level FlightAware UK
11:21PM 51.7980 4.1470 105° East 515 593 36,000  Climbing FlightAware
11:21PM 51.7873 4.2231 105° East 452 520 34,500 -2,580 Descending FlightAware UK
11:21PM 51.7765 4.2894 105° East 452 520 34,500 3,900 Level FlightAware UK
11:21PM 51.7730 4.2980 105° East 515 593 36,000  Climbing FlightAware
11:22PM 51.7616 4.3794 105° East 450 518 34,500 -2,460 Descending FlightAware UK
11:22PM 51.7505 4.4463 105° East 452 520 34,500 3,420 Level FlightAware UK
11:22PM 51.7460 4.4540 105° East 515 593 36,000  Climbing FlightAware
11:22PM 51.7358 4.5363 105° East 452 520 34,500 -2,700 Descending FlightAware UK
11:23PM 51.7250 4.6032 105° East 452 520 34,500 3,720 Level FlightAware UK
11:23PM 51.7200 4.6080 105° East 515 593 36,000  Climbing FlightAware
11:23PM 51.7101 4.6925 105° East 452 520 34,500 -2,520 Descending FlightAware UK
11:23PM 51.6988 4.7593 105° East 452 520 34,500 3,300 Level FlightAware UK
11:24PM 51.6920 4.7760 105° East 514 592 36,000  Climbing FlightAware
11:24PM 51.6835 4.8481 105° East 450 518 34,500 -2,760 Descending FlightAware UK
11:24PM 51.6722 4.9150 105° East 450 518 34,500 3,600 Level FlightAware UK
11:24PM 51.6660 4.9240 105° East 515 593 36,000  Climbing FlightAware
11:24PM 51.6567 5.0038 105° East 450 518 34,500 -2,580 Descending FlightAware UK
11:25PM 51.6451 5.0704 106° East 450 518 34,500 3,900 Level FlightAware UK
11:25PM 51.6400 5.0710 106° East 516 594 36,000  Climbing FlightAware
11:25PM 51.6298 5.1595 106° East 450 518 34,500 -2,460 Descending FlightAware UK
11:25PM 51.6186 5.2264 105° East 450 518 34,500 3,420 Level FlightAware UK
11:26PM 51.6110 5.2420 105° East 516 594 36,000  Climbing FlightAware
11:26PM 51.6030 5.3153 105° East 450 518 34,500 -2,700 Descending FlightAware UK
11:26PM 51.5914 5.3822 106° East 450 518 34,500 3,720 Level FlightAware UK
11:26PM 51.5840 5.3810 106° East 517 595 36,000  Climbing FlightAware
11:27PM 51.5732 5.4700 106° East 450 518 34,500  Descending FlightAware UK
11:27PM 51.5430 5.5450 106° East 518 596 36,000 1,320 Climbing FlightAware
11:28PM 51.5070 5.6860 112° Southeast 518 596 36,000  Level FlightAware
11:28PM 51.4710 5.8300 112° Southeast 519 597 36,000  Level FlightAware
11:29PM 51.4330 5.9870 111° Southeast 519 597 36,000  Level FlightAware
11:30PM 51.3980 6.1310 111° Southeast 519 597 36,000  Level FlightAware
11:31PM 51.3570 6.2950 112° Southeast 519 597 36,000 -240 Level FlightAware
11:31PM 51.3230 6.4360 111° Southeast 519 597 35,700 -1,380 Descending FlightAware
11:32PM 51.2880 6.5730 112° Southeast 519 597 34,200 -2,340 Descending FlightAware
11:33PM 51.2490 6.7290 112° Southeast 519 597 32,400 -2,700 Descending FlightAware
11:33PM 51.2110 6.8780 112° Southeast 519 597 30,400 -2,880 Descending FlightAware
11:34PM 51.1720 7.0310 112° Southeast 514 592 28,400 -2,520 Descending FlightAware
11:35PM 51.1320 7.1710 114° Southeast 513 590 26,900 -2,100 Descending FlightAware
11:35PM 51.0820 7.2910 124° Southeast 507 583 25,600 -1,980 Descending FlightAware
11:36PM 51.0210 7.4220 126° Southeast 494 568 24,100 -1,860 Descending FlightAware
11:37PM 50.9630 7.5310 130° Southeast 487 560 23,000 -1,320 Descending FlightAware
11:37PM 50.9060 7.6350 131° Southeast 475 547 22,400 -900 Descending FlightAware
11:38PM 50.8410 7.7580 130° Southeast 462 532 21,800 -900 Descending FlightAware
11:39PM 50.7880 7.8630 129° Southeast 449 517 21,200 -1,200 Descending FlightAware
11:40PM 50.7290 7.9760 129° Southeast 442 509 20,100 -1,920 Descending FlightAware
11:40PM 50.6780 8.0770 129° Southeast 440 506 18,500 -2,700 Descending FlightAware
11:41PM 50.6250 8.1770 130° Southeast 435 501 16,500 -2,400 Descending FlightAware
11:42PM 50.5680 8.2860 129° Southeast 432 497 15,100 -1,200 Descending FlightAware
11:42PM 50.5290 8.3600 130° Southeast 408 470 15,000 -960 Descending FlightAware
11:43PM 50.4830 8.4480 129° Southeast 401 461 14,000 -1,380 Descending FlightAware
11:44PM 50.4390 8.5390 127° Southeast 381 438 13,200 -1,740 Descending FlightAware
11:44PM 50.3990 8.6470 120° Southeast 370 426 11,600 -1,800 Descending FlightAware
11:45PM 50.3670 8.7340 120° Southeast 331 381 10,700 -1,320 Descending FlightAware
11:46PM 50.3360 8.8250 118° Southeast 307 353 9,800 -1,560 Descending FlightAware
11:46PM 50.3190 8.8730 119° Southeast 299 344 8,900 -2,100 Descending FlightAware
11:47PM 50.2970 8.9280 122° Southeast 286 329 7,900 -1,980 Descending FlightAware
11:47PM 50.2680 8.9530 151° Southeast 272 313 7,100 -1,980 Descending FlightAware
11:47PM 50.2510 8.9660 154° Southeast 268 308 6,600 -2,220 Descending FlightAware
11:48PM 50.2330 8.9730 166° South 257 296 6,000 -1,980 Descending FlightAware
11:48PM 50.2040 8.9640 191° South 253 291 5,300 -1,560 Descending FlightAware
11:48PM 50.1740 8.9350 212° Southwest 230 265 4,600 -1,320 Descending FlightAware
11:49PM 50.1550 8.8990 231° Southwest 209 241 4,000 -1,020 Descending FlightAware
11:49PM 50.1470 8.8660 249° West 192 221 3,700 -360 Descending FlightAware
11:50PM 50.1390 8.8270 252° West 187 215 3,700  Level FlightAware
11:50PM 50.1300 8.7880 250° West 185 213 3,700 -120 Level FlightAware
11:51PM 50.1230 8.7580 250° West 169 194 3,600 -660 Descending FlightAware
11:51PM 50.1160 8.7240 252° West 166 191 3,100 -1,020 Descending FlightAware
11:52PM 50.1100 8.6960 252° West 170 196 2,700 -1,020 Descending FlightAware
11:52PM 50.1020 8.6620 250° West 168 193 2,200 -840 Descending FlightAware
11:53PM 50.0970 8.6410 250° West 159 183 2,000 -840 Descending FlightAware
11:53PM 50.0900 8.6090 251° West 146 168 1,500 -480 Descending FlightAware
11:54PM 50.0850 8.5830 253° West 140 161 1,500 -720 Level FlightAware
11:54PM 50.0790 8.5580 250° West 122 140 800 -1,200 Descending FlightAware
11:54PM 50.0760 8.5440 252° West 126 145 600 -600 Descending FlightAware